createdAt,value
2023-05-12T00:03:59.287Z,1015.62
2023-05-12T00:14:07.108Z,1015.61
2023-05-12T00:24:13.943Z,1015.57
2023-05-12T00:34:21.196Z,1015.58
2023-05-12T00:44:28.535Z,1015.64
2023-05-12T00:54:35.632Z,1015.73
2023-05-12T01:04:42.508Z,1015.72
2023-05-12T01:14:49.788Z,1015.74
2023-05-12T01:24:56.380Z,1015.76
2023-05-12T01:35:03.998Z,1015.81
2023-05-12T01:45:10.626Z,1015.83
2023-05-12T01:55:18.139Z,1015.86
2023-05-12T02:05:25.027Z,1015.88
2023-05-12T02:15:31.820Z,1015.99
2023-05-12T02:25:38.731Z,1016.00
2023-05-12T02:35:45.888Z,1016.04
2023-05-12T02:45:52.927Z,1016.04
2023-05-12T02:55:59.710Z,1016.06
2023-05-12T03:06:07.065Z,1016.01
2023-05-12T03:16:14.015Z,1016.09
2023-05-12T03:26:20.762Z,1016.21
2023-05-12T03:36:27.979Z,1016.12
2023-05-12T03:46:35.356Z,1016.19
2023-05-12T03:56:43.205Z,1016.21
2023-05-12T04:06:50.215Z,1016.28
2023-05-12T04:16:57.161Z,1016.33
2023-05-12T04:27:04.690Z,1016.31
2023-05-12T04:37:11.607Z,1016.34
2023-05-12T04:47:19.281Z,1016.47
2023-05-12T04:57:26.615Z,1016.55
2023-05-12T05:07:33.386Z,1016.70
2023-05-12T05:17:40.672Z,1016.77
2023-05-12T05:27:47.243Z,1016.82
2023-05-12T05:37:54.372Z,1016.87
2023-05-12T05:48:01.636Z,1016.91
2023-05-12T05:58:09.086Z,1016.95
2023-05-12T06:08:16.527Z,1017.06
2023-05-12T06:18:23.593Z,1017.08
2023-05-12T06:28:31.072Z,1017.11
2023-05-12T06:38:37.723Z,1017.20
2023-05-12T06:48:44.856Z,1017.20
2023-05-12T06:58:52.386Z,1017.14
2023-05-12T07:08:59.320Z,1017.14
2023-05-12T07:19:06.905Z,1017.18
2023-05-12T07:29:14.174Z,1017.21
2023-05-12T07:39:21.176Z,1017.14
2023-05-12T07:49:28.311Z,1017.17
2023-05-12T07:59:35.762Z,1017.20
2023-05-12T08:09:42.394Z,1017.26
2023-05-12T08:19:49.159Z,1017.26
2023-05-12T08:29:56.564Z,1017.20
2023-05-12T08:40:03.562Z,1017.32
2023-05-12T08:50:10.249Z,1017.29
2023-05-12T09:00:16.556Z,1017.26
2023-05-12T09:10:34.464Z,1017.23
2023-05-12T09:20:35.360Z,1017.21
2023-05-12T09:30:43.001Z,1017.20
2023-05-12T09:40:49.457Z,1017.19
2023-05-12T09:50:56.716Z,1017.23
2023-05-12T10:01:20.900Z,1017.21
2023-05-12T10:11:15.858Z,1017.05
2023-05-12T10:21:23.119Z,1017.12
2023-05-12T10:31:30.257Z,1017.00
2023-05-12T10:41:37.732Z,1017.00
2023-05-12T10:51:44.882Z,1016.88
2023-05-12T11:01:51.135Z,1016.92
2023-05-12T11:12:00.098Z,1016.94
2023-05-12T11:22:07.338Z,1016.89
2023-05-12T11:32:14.592Z,1016.83
2023-05-12T11:42:23.470Z,1016.91
2023-05-12T11:52:31.200Z,1016.99
2023-05-12T12:02:38.727Z,1017.02
2023-05-12T12:12:46.652Z,1016.91
2023-05-12T12:22:53.351Z,1016.98
2023-05-12T12:33:00.814Z,1016.90
2023-05-12T12:43:08.684Z,1016.87
2023-05-12T12:53:16.463Z,1016.80
2023-05-12T13:03:23.412Z,1016.89
2023-05-12T13:13:30.751Z,1016.83
2023-05-12T13:23:37.811Z,1016.91
2023-05-12T13:33:44.608Z,1016.80
2023-05-12T13:43:51.768Z,1016.87
2023-05-12T13:53:59.036Z,1016.80
2023-05-12T14:04:06.105Z,1016.74
2023-05-12T14:14:13.537Z,1016.80
2023-05-12T14:24:19.848Z,1016.62
2023-05-12T14:34:26.968Z,1016.79
2023-05-12T14:44:34.135Z,1016.62
2023-05-12T14:54:40.914Z,1016.74
2023-05-12T15:04:48.330Z,1016.76
2023-05-12T15:14:55.145Z,1016.77
2023-05-12T15:25:02.091Z,1016.77
2023-05-12T15:35:09.195Z,1016.80
2023-05-12T15:45:16.584Z,1016.70
2023-05-12T15:55:23.433Z,1016.67
2023-05-12T16:05:31.270Z,1016.69
2023-05-12T16:15:38.582Z,1016.67
2023-05-12T16:25:45.694Z,1016.59
2023-05-12T16:35:52.739Z,1016.59
2023-05-12T16:45:59.264Z,1016.65
2023-05-12T16:56:06.562Z,1016.67
2023-05-12T17:06:13.652Z,1016.63
2023-05-12T17:16:20.992Z,1016.71
2023-05-12T17:26:28.684Z,1016.82
2023-05-12T17:36:35.484Z,1016.86
2023-05-12T17:46:42.523Z,1016.97
2023-05-12T17:56:50.148Z,1017.08
2023-05-12T18:06:57.451Z,1017.16
2023-05-12T18:17:04.624Z,1017.26
2023-05-12T18:27:11.910Z,1017.28
2023-05-12T18:37:19.061Z,1017.32
2023-05-12T18:47:26.160Z,1017.53
2023-05-12T18:57:33.056Z,1017.62
2023-05-12T19:07:40.506Z,1017.73
2023-05-12T19:17:47.408Z,1017.79
2023-05-12T19:27:54.310Z,1017.84
2023-05-12T19:38:01.211Z,1017.91
2023-05-12T19:48:08.247Z,1017.97
2023-05-12T19:58:15.030Z,1018.06
2023-05-12T20:08:21.693Z,1018.06
2023-05-12T20:18:28.483Z,1018.13
2023-05-12T20:28:35.398Z,1018.14
2023-05-12T20:38:42.548Z,1018.17
2023-05-12T20:48:49.249Z,1018.20
2023-05-12T20:58:55.821Z,1018.18
2023-05-12T21:09:03.017Z,1018.22
2023-05-12T21:19:09.753Z,1018.38
2023-05-12T21:29:16.886Z,1018.38
2023-05-12T21:39:23.879Z,1018.40
2023-05-12T21:49:31.026Z,1018.37
2023-05-12T21:59:38.209Z,1018.41
2023-05-12T22:09:45.249Z,1018.46
2023-05-12T22:19:52.689Z,1018.33
2023-05-12T22:29:59.786Z,1018.38
2023-05-12T22:40:07.250Z,1018.38
2023-05-12T22:50:14.348Z,1018.40
2023-05-12T23:00:21.361Z,1018.48
2023-05-12T23:10:28.139Z,1018.46
2023-05-12T23:20:35.191Z,1018.43
2023-05-12T23:30:41.995Z,1018.34
2023-05-12T23:40:49.059Z,1018.35
2023-05-12T23:50:56.205Z,1018.36
